Terminal Aerodrome Forecast
Issued by NWS

Home | Current Version | Previous Version | Text Only | Print | Product List | Glossary On
Versions: 1 2 3 4 5 6 7 8 9 10 11 12 13 14
000
FTUS43 KILX 071124
TAFDEC
TAF
KDEC 071124Z 0712/0812 21012KT P6SM BKN120
     FM071500 22015G25KT P6SM BKN120
     FM072000 26012G20KT P6SM SCT040 BKN120
     FM080300 27010KT P6SM SCT020 OVC040
     FM081000 28012KT P6SM VCSH OVC020=

USA.gov is the U.S. government's official web portal to all federal, state and local government web resources and services.